Impacts METAR Board
IDs:

KHOU - Houston/Hobby Arpt, TX, US

Updated at: 2200 UTC 02 Oct 2022
Potential Impact None Slight Moderate High
Time 02/10Z 02/11Z 02/12Z 02/13Z 02/14Z 02/15Z 02/16Z 02/17Z 02/18Z 02/19Z 02/20Z 02/21Z 02/22Z
Temp61 60 60 59 68 74 78 81 83 85 85 86 86
Dewpt50 49 49 50 50 49 47 46 44 41 42 41 42
Altim30.06 30.07 30.09 30.11 30.14 30.15 30.15 30.14 30.12 30.10 30.07 30.06 30.06
VIS10 10 10 10 10 10 10 10 10 10 10 10 10
CIG-- -- -- -- -- -- -- -- -- 250 250 250 250
CoverFEWFEWSCTSCTSCTSCTSCTSCTSCTBKNBKNBKNBKN
FltCatVFRVFRVFRVFRVFRVFRVFRVFRVFRVFRVFRVFRVFR
WX--------------------------
WDir10035036040606003403401040360
WSpd4 0 4 5 3 6 6 5 4 9 7 7 7
WGst-- -- -- -- -- -- -- -- 16 18 -- -- --
R04/22
XWnd 2 VRB 3 3 0 -2 -2 VRB 4 8 4 0 5
XGst -- -- -- -- -- -- -- -- 14 16 -- -- --
HWnd 3 VRB 2 4 3 6 6 VRB 2 4 6 7 5
HGst -- -- -- -- -- -- -- -- 7 8 -- -- --
R13/31
XWnd 3 VRB 2 4 3 6 6 VRB 2 4 6 7 5
XGst -- -- -- -- -- -- -- -- 7 8 -- -- --
HWnd -2 VRB -3 -3 -0 2 2 VRB -4 -8 -4 -0 -5
HGst -- -- -- -- -- -- -- -- -14 -16 -- -- --
Raw hourly METARs
KHOU 020953Z 01004KT 10SM FEW250 16/10 A3006 RMK AO2 SLP184 T01610100
KHOU 021053Z 00000KT 10SM FEW250 16/09 A3007 RMK AO2 SLP188 T01560094
KHOU 021153Z 35004KT 10SM SCT250 16/09 A3009 RMK AO2 SLP194 T01560094 10200 20150 53014
KHOU 021253Z 36005KT 10SM SCT250 15/10 A3011 RMK AO2 SLP202 T01500100
KHOU 021353Z 04003KT 10SM SCT250 20/10 A3014 RMK AO2 SLP209 T02000100
KHOU 021453Z 06006KT 10SM FEW200 SCT250 23/09 A3015 RMK AO2 SLP213 T02330094 51019
KHOU 021553Z 06006KT 10SM SCT250 26/08 A3015 RMK AO2 SLP215 T02560083
KHOU 021653Z VRB05KT 10SM SCT250 27/08 A3014 RMK AO2 SLP211 T02720078
KHOU 021753Z 34004G16KT 10SM SCT250 28/07 A3012 RMK AO2 SLP203 T02830067 10283 20144 58010
KHOU 021853Z 34009G18KT 10SM BKN250 29/05 A3010 RMK AO2 SLP196 T02940050
KHOU 021953Z 01007KT 10SM BKN250 29/06 A3007 RMK AO2 SLP188 T02940056
KHOU 022053Z 04007KT 10SM FEW200 BKN250 30/05 A3006 RMK AO2 SLP183 T03000050 56020
KHOU 022153Z 36007KT 10SM FEW200 BKN250 30/06 A3006 RMK AO2 SLP183 T03000056



Page loaded:  22:14 UTC  |   03:14 PM Pacific  |   04:14 PM Mountain  |   05:14 PM Central  |   06:14 PM Eastern

 

ADVISORIES

FORECASTS

FORECASTS

OBSERVATIONS

USER TOOLS

ABOUT US